createdAt,value
2023-08-11T00:01:06.342Z,1.10
2023-08-11T00:03:33.896Z,1.05
2023-08-11T00:06:00.456Z,1.00
2023-08-11T00:08:26.978Z,1.30
2023-08-11T00:10:53.906Z,1.00
2023-08-11T00:13:20.438Z,1.10
2023-08-11T00:15:47.072Z,1.20
2023-08-11T00:18:13.638Z,0.90
2023-08-11T00:20:40.157Z,1.48
2023-08-11T00:23:06.671Z,1.10
2023-08-11T00:25:33.192Z,1.17
2023-08-11T00:28:00.197Z,1.00
2023-08-11T00:30:26.785Z,1.00
2023-08-11T00:32:53.472Z,1.35
2023-08-11T00:35:20.212Z,1.10
2023-08-11T00:37:47.081Z,1.20
2023-08-11T00:40:13.580Z,1.33
2023-08-11T00:42:41.061Z,1.30
2023-08-11T00:45:08.180Z,1.27
2023-08-11T00:47:34.769Z,1.60
2023-08-11T00:50:01.320Z,1.10
2023-08-11T00:52:27.860Z,1.45
2023-08-11T00:54:57.214Z,1.38
2023-08-11T00:57:24.002Z,1.10
2023-08-11T00:59:50.851Z,1.30
2023-08-11T01:02:17.702Z,1.52
2023-08-11T01:04:44.226Z,1.35
2023-08-11T01:07:28.365Z,1.38
2023-08-11T01:10:04.944Z,1.23
2023-08-11T01:12:44.545Z,1.20
2023-08-11T01:15:23.135Z,1.27
2023-08-11T01:17:50.256Z,1.30
2023-08-11T01:20:17.494Z,1.30
2023-08-11T01:22:48.838Z,1.40
2023-08-11T01:25:15.392Z,1.63
2023-08-11T01:27:48.222Z,1.65
2023-08-11T01:30:17.322Z,1.50
2023-08-11T01:32:43.917Z,1.63
2023-08-11T01:35:10.919Z,1.67
2023-08-11T01:37:38.063Z,1.65
2023-08-11T01:40:11.678Z,1.30
2023-08-11T01:42:46.571Z,1.40
2023-08-11T01:45:18.218Z,1.30
2023-08-11T01:47:47.548Z,1.60
2023-08-11T01:50:14.880Z,1.27
2023-08-11T01:52:44.336Z,1.30
2023-08-11T01:55:11.719Z,1.10
2023-08-11T01:57:45.027Z,1.15
2023-08-11T02:00:21.954Z,1.10
2023-08-11T02:02:48.610Z,1.48
2023-08-11T02:05:18.995Z,1.20
2023-08-11T02:07:48.945Z,1.67
2023-08-11T02:10:15.494Z,1.70
2023-08-11T02:12:42.378Z,1.60
2023-08-11T02:15:10.236Z,1.30
2023-08-11T02:17:36.862Z,1.55
2023-08-11T02:20:14.797Z,1.38
2023-08-11T02:22:41.300Z,1.50
2023-08-11T02:25:08.395Z,1.50
2023-08-11T02:27:37.341Z,1.50
2023-08-11T02:30:06.285Z,1.77
2023-08-11T02:32:33.610Z,1.80
2023-08-11T02:35:00.160Z,1.42
2023-08-11T02:37:26.684Z,1.50
2023-08-11T02:39:53.223Z,1.40
2023-08-11T02:42:20.059Z,1.70
2023-08-11T02:44:46.568Z,1.90
2023-08-11T02:47:13.056Z,1.45
2023-08-11T02:49:39.695Z,1.70
2023-08-11T02:52:06.856Z,1.40
2023-08-11T02:54:33.974Z,1.50
2023-08-11T02:57:00.498Z,1.45
2023-08-11T02:59:27.090Z,1.52
2023-08-11T03:01:53.580Z,1.40
2023-08-11T03:04:20.154Z,1.30
2023-08-11T03:06:48.889Z,1.48
2023-08-11T03:09:15.637Z,1.33
2023-08-11T03:11:42.176Z,1.63
2023-08-11T03:14:08.684Z,1.63
2023-08-11T03:16:35.371Z,1.90
2023-08-11T03:19:02.621Z,1.73
2023-08-11T03:21:29.139Z,1.30
2023-08-11T03:23:56.236Z,1.80
2023-08-11T03:26:24.004Z,1.58
2023-08-11T03:28:50.955Z,1.30
2023-08-11T03:31:17.537Z,1.30
2023-08-11T03:33:46.168Z,1.70
2023-08-11T03:36:15.137Z,1.50
2023-08-11T03:38:44.013Z,1.40
2023-08-11T03:41:10.921Z,1.23
2023-08-11T03:43:37.862Z,1.40
2023-08-11T03:46:05.076Z,1.58
2023-08-11T03:48:33.829Z,1.33
2023-08-11T03:51:01.259Z,1.80
2023-08-11T03:53:30.414Z,1.83
2023-08-11T03:55:57.087Z,1.13
2023-08-11T03:58:24.560Z,1.40
2023-08-11T04:00:53.182Z,1.35
2023-08-11T04:03:20.024Z,1.50
2023-08-11T04:05:46.589Z,1.63
2023-08-11T04:08:13.117Z,1.42
2023-08-11T04:10:39.713Z,1.40
2023-08-11T04:13:06.296Z,1.30
2023-08-11T04:15:32.968Z,1.70
2023-08-11T04:17:59.613Z,1.33
2023-08-11T04:20:26.226Z,1.33
2023-08-11T04:22:52.739Z,1.30
2023-08-11T04:25:19.763Z,1.58
2023-08-11T04:27:47.588Z,1.60
2023-08-11T04:30:14.616Z,1.60
2023-08-11T04:32:44.572Z,1.30
2023-08-11T04:35:11.449Z,1.67
2023-08-11T04:37:40.317Z,1.33
2023-08-11T04:40:10.613Z,1.40
2023-08-11T04:42:38.932Z,1.25
2023-08-11T04:45:06.513Z,1.30
2023-08-11T04:47:34.262Z,1.20
2023-08-11T04:50:01.686Z,1.02
2023-08-11T04:52:28.262Z,1.95
2023-08-11T04:54:54.786Z,1.85
2023-08-11T04:57:21.482Z,1.20
2023-08-11T04:59:49.850Z,1.65
2023-08-11T05:02:16.626Z,1.42
2023-08-11T05:04:43.103Z,1.40
2023-08-11T05:07:09.801Z,1.20
2023-08-11T05:09:39.458Z,1.05
2023-08-11T05:12:06.494Z,1.10
2023-08-11T05:14:33.423Z,1.05
2023-08-11T05:17:01.599Z,0.95
2023-08-11T05:19:30.389Z,1.00
2023-08-11T05:21:56.904Z,1.08
2023-08-11T05:24:23.401Z,1.42
2023-08-11T05:26:49.899Z,2.20
2023-08-11T05:29:16.512Z,2.30
2023-08-11T05:31:43.066Z,1.98
2023-08-11T05:34:10.675Z,1.75
2023-08-11T05:36:38.003Z,1.40
2023-08-11T05:39:04.879Z,1.67
2023-08-11T05:41:31.383Z,1.50
2023-08-11T05:43:57.872Z,1.30
2023-08-11T05:46:24.622Z,0.98
2023-08-11T05:48:52.181Z,1.20
2023-08-11T05:51:18.668Z,1.65
2023-08-11T05:53:45.205Z,1.52
2023-08-11T05:56:11.732Z,1.10
2023-08-11T05:58:38.258Z,1.20
2023-08-11T06:01:04.869Z,2.33
2023-08-11T06:03:31.940Z,2.00
2023-08-11T06:06:02.663Z,1.80
2023-08-11T06:08:29.515Z,1.70
2023-08-11T06:10:56.259Z,1.30
2023-08-11T06:13:23.858Z,1.30
2023-08-11T06:15:51.106Z,1.40
2023-08-11T06:18:18.530Z,1.73
2023-08-11T06:20:45.587Z,1.63
2023-08-11T06:23:13.209Z,1.25
2023-08-11T06:25:40.045Z,1.48
2023-08-11T06:28:08.320Z,1.83
2023-08-11T06:30:34.908Z,1.50
2023-08-11T06:33:01.500Z,1.20
2023-08-11T06:35:28.094Z,1.10
2023-08-11T06:41:16.454Z,1.85
2023-08-11T06:43:42.958Z,1.45
2023-08-11T06:46:09.517Z,1.20
2023-08-11T06:48:36.085Z,1.38
2023-08-11T06:51:03.373Z,1.70
2023-08-11T06:53:29.917Z,1.75
2023-08-11T06:55:56.427Z,1.77
2023-08-11T06:58:26.051Z,1.60
2023-08-11T07:00:53.400Z,1.52
2023-08-11T07:03:45.141Z,1.50
2023-08-11T07:06:12.331Z,2.13
2023-08-11T07:08:39.537Z,1.83
2023-08-11T07:11:06.225Z,2.00
2023-08-11T07:13:32.885Z,1.75
2023-08-11T07:15:59.393Z,1.60
2023-08-11T07:18:25.931Z,1.50
2023-08-11T07:20:52.457Z,1.38
2023-08-11T07:23:19.120Z,1.20
2023-08-11T07:25:45.629Z,1.38
2023-08-11T07:28:12.963Z,1.30
2023-08-11T07:30:39.518Z,1.45
2023-08-11T07:33:06.058Z,1.38
2023-08-11T07:35:32.931Z,1.80
2023-08-11T07:38:00.131Z,1.38
2023-08-11T07:40:26.705Z,1.30
2023-08-11T07:42:53.178Z,1.80
2023-08-11T07:45:20.074Z,1.48
2023-08-11T07:47:47.264Z,1.27
2023-08-11T07:50:13.878Z,1.42
2023-08-11T07:52:40.400Z,1.45
2023-08-11T07:55:07.231Z,1.50
2023-08-11T07:57:33.848Z,1.50
2023-08-11T08:00:00.359Z,1.77
2023-08-11T08:02:27.595Z,1.70
2023-08-11T08:05:02.752Z,1.55
2023-08-11T08:07:37.049Z,1.10
2023-08-11T08:10:09.309Z,1.33
2023-08-11T08:12:39.462Z,1.33
2023-08-11T08:15:07.442Z,1.50
2023-08-11T08:17:34.431Z,2.00
2023-08-11T08:20:01.279Z,1.63
2023-08-11T08:22:28.050Z,1.52
2023-08-11T08:24:54.546Z,1.40
2023-08-11T08:27:25.452Z,1.30
2023-08-11T08:32:20.378Z,1.90
2023-08-11T08:34:47.222Z,1.85
2023-08-11T08:37:13.808Z,1.23
2023-08-11T08:39:40.314Z,1.63
2023-08-11T08:42:07.042Z,1.63
2023-08-11T08:44:36.647Z,1.58
2023-08-11T08:47:05.505Z,1.35
2023-08-11T08:49:32.607Z,1.70
2023-08-11T08:51:59.463Z,1.55
2023-08-11T08:54:26.082Z,2.13
2023-08-11T08:56:52.813Z,1.55
2023-08-11T08:59:19.320Z,1.27
2023-08-11T09:01:45.970Z,1.17
2023-08-11T09:04:12.762Z,1.10
2023-08-11T09:06:39.918Z,1.25
2023-08-11T09:09:08.653Z,1.25
2023-08-11T09:11:35.202Z,1.90
2023-08-11T09:14:05.538Z,1.15
2023-08-11T09:16:34.025Z,1.17
2023-08-11T09:19:00.818Z,1.30
2023-08-11T09:21:27.469Z,1.10
2023-08-11T09:23:55.476Z,1.30
2023-08-11T09:26:22.866Z,1.13
2023-08-11T09:28:50.766Z,1.25
2023-08-11T09:31:21.331Z,0.90
2023-08-11T09:33:47.892Z,1.23
2023-08-11T09:36:14.465Z,1.05
2023-08-11T09:38:42.454Z,1.50
2023-08-11T09:41:10.127Z,1.23
2023-08-11T09:43:37.557Z,1.08
2023-08-11T09:46:04.164Z,0.95
2023-08-11T09:48:30.752Z,1.10
2023-08-11T09:50:58.324Z,1.00
2023-08-11T09:53:25.627Z,1.20
2023-08-11T09:55:55.814Z,1.40
2023-08-11T09:58:25.422Z,1.20
2023-08-11T10:00:57.021Z,1.33
2023-08-11T10:03:31.760Z,1.20
2023-08-11T10:05:59.641Z,1.00
2023-08-11T10:08:29.650Z,0.90
2023-08-11T10:10:56.165Z,0.60
2023-08-11T10:13:25.010Z,0.95
2023-08-11T10:15:53.279Z,0.80
2023-08-11T10:18:21.447Z,0.82
2023-08-11T10:20:52.331Z,0.82
2023-08-11T10:23:19.397Z,0.85
2023-08-11T10:25:49.969Z,0.60
2023-08-11T10:28:18.082Z,0.90
2023-08-11T10:30:44.709Z,0.85
2023-08-11T10:33:11.407Z,0.70
2023-08-11T10:35:49.086Z,0.57
2023-08-11T10:38:32.178Z,1.00
2023-08-11T10:41:04.101Z,1.10
2023-08-11T10:43:39.145Z,0.90
2023-08-11T10:46:23.338Z,0.82
2023-08-11T10:49:00.222Z,0.90
2023-08-11T10:51:29.147Z,0.65
2023-08-11T10:53:57.152Z,0.70
2023-08-11T10:56:35.360Z,0.70
2023-08-11T10:59:28.226Z,0.70
2023-08-11T11:01:55.775Z,0.80
2023-08-11T11:04:23.754Z,0.60
2023-08-11T11:06:52.304Z,0.40
2023-08-11T11:09:22.066Z,0.63
2023-08-11T11:11:51.968Z,0.60
2023-08-11T11:14:18.584Z,0.60
2023-08-11T11:16:45.258Z,0.50
2023-08-11T11:19:11.917Z,0.50
2023-08-11T11:21:39.656Z,0.50
2023-08-11T11:24:06.469Z,0.50
2023-08-11T11:26:33.668Z,0.60
2023-08-11T11:29:01.868Z,0.30
2023-08-11T11:31:33.901Z,0.40
2023-08-11T11:34:00.539Z,0.30
2023-08-11T11:36:27.278Z,0.55
2023-08-11T11:38:53.920Z,0.30
2023-08-11T11:41:20.827Z,0.40
2023-08-11T11:43:50.025Z,0.57
2023-08-11T11:46:19.083Z,0.40
2023-08-11T11:48:47.438Z,0.50
2023-08-11T11:51:15.508Z,0.40
2023-08-11T11:53:43.043Z,0.60
2023-08-11T11:56:09.980Z,0.30
2023-08-11T11:58:40.033Z,0.60
2023-08-11T12:01:17.853Z,0.40
2023-08-11T12:03:51.607Z,0.40
2023-08-11T12:06:19.465Z,0.45
2023-08-11T12:08:46.492Z,0.40
2023-08-11T12:11:14.222Z,0.30
2023-08-11T12:13:43.787Z,0.32
2023-08-11T12:16:15.895Z,0.65
2023-08-11T12:18:42.609Z,0.60
2023-08-11T12:21:12.006Z,0.50
2023-08-11T12:23:38.957Z,0.50
2023-08-11T12:26:05.460Z,0.60
2023-08-11T12:28:32.557Z,0.60
2023-08-11T12:30:59.102Z,0.40
2023-08-11T12:33:26.599Z,0.70
2023-08-11T12:35:53.237Z,0.63
2023-08-11T12:38:21.779Z,0.70
2023-08-11T12:40:49.166Z,0.43
2023-08-11T12:43:16.046Z,0.47
2023-08-11T12:45:43.459Z,0.40
2023-08-11T12:48:10.221Z,0.60
2023-08-11T12:50:37.231Z,0.57
2023-08-11T12:53:07.786Z,0.60
2023-08-11T12:55:35.093Z,0.47
2023-08-11T12:58:05.138Z,0.77
2023-08-11T13:00:31.754Z,0.80
2023-08-11T13:02:58.664Z,0.70
2023-08-11T13:05:25.579Z,0.60
2023-08-11T13:07:53.375Z,0.70
2023-08-11T13:10:21.988Z,0.38
2023-08-11T13:12:48.766Z,0.40
2023-08-11T13:15:15.267Z,0.50
2023-08-11T13:17:41.831Z,0.63
2023-08-11T13:20:10.910Z,0.43
2023-08-11T13:22:37.902Z,0.35
2023-08-11T13:25:04.968Z,0.50
2023-08-11T13:27:31.806Z,0.60
2023-08-11T13:29:58.298Z,0.70
2023-08-11T13:32:24.857Z,0.40
2023-08-11T13:34:51.360Z,0.40
2023-08-11T13:37:17.901Z,0.70
2023-08-11T13:39:44.392Z,0.90
2023-08-11T13:42:12.109Z,0.70
2023-08-11T13:44:38.924Z,0.50
2023-08-11T13:47:06.638Z,0.52
2023-08-11T13:49:33.218Z,0.50
2023-08-11T13:51:59.804Z,0.60
2023-08-11T13:54:27.694Z,0.70
2023-08-11T13:56:55.405Z,0.68
2023-08-11T13:59:21.940Z,0.65
2023-08-11T14:01:48.477Z,0.98
2023-08-11T14:04:14.941Z,0.40
2023-08-11T14:06:41.509Z,0.70
2023-08-11T14:09:08.081Z,0.60
2023-08-11T14:11:34.632Z,0.63
2023-08-11T14:14:01.413Z,2.08
2023-08-11T14:16:27.942Z,1.10
2023-08-11T14:18:56.649Z,0.90
2023-08-11T14:21:23.986Z,1.02
2023-08-11T14:23:52.717Z,0.55
2023-08-11T14:26:19.301Z,0.70
2023-08-11T14:28:45.877Z,1.08
2023-08-11T14:31:12.362Z,0.60
2023-08-11T14:33:41.294Z,0.85
2023-08-11T14:36:13.038Z,0.60
2023-08-11T14:38:40.421Z,0.80
2023-08-11T14:41:07.788Z,0.82
2023-08-11T14:43:34.874Z,1.00
2023-08-11T14:46:01.650Z,0.60
2023-08-11T14:48:28.462Z,0.90
2023-08-11T14:50:55.311Z,0.63
2023-08-11T14:53:23.708Z,0.63
2023-08-11T14:55:50.342Z,0.70
2023-08-11T14:58:17.253Z,0.80
2023-08-11T15:00:43.983Z,1.00
2023-08-11T15:03:10.641Z,0.98
2023-08-11T15:05:37.222Z,0.70
2023-08-11T15:08:03.904Z,0.90
2023-08-11T15:10:30.446Z,0.80
2023-08-11T15:12:57.219Z,0.77
2023-08-11T15:15:23.718Z,0.70
2023-08-11T15:17:50.255Z,0.90
2023-08-11T15:20:16.802Z,0.80
2023-08-11T15:22:43.327Z,0.70
2023-08-11T15:25:09.971Z,0.60
2023-08-11T15:27:36.719Z,0.80
2023-08-11T15:30:07.440Z,0.80
2023-08-11T15:35:00.377Z,0.60
2023-08-11T15:37:26.869Z,0.55
2023-08-11T15:39:53.596Z,0.82
2023-08-11T15:42:20.110Z,0.90
2023-08-11T15:44:46.660Z,0.77
2023-08-11T15:47:13.142Z,0.75
2023-08-11T15:49:40.062Z,0.80
2023-08-11T15:52:06.845Z,0.88
2023-08-11T15:54:33.433Z,0.68
2023-08-11T15:57:00.455Z,0.65
2023-08-11T15:59:27.002Z,0.52
2023-08-11T16:02:14.910Z,0.50
2023-08-11T16:04:40.004Z,0.52
2023-08-11T16:07:06.479Z,0.50
2023-08-11T16:09:32.979Z,0.60
2023-08-11T16:11:59.495Z,0.65
2023-08-11T16:14:28.021Z,0.82
2023-08-11T16:16:55.248Z,0.90
2023-08-11T16:19:21.764Z,0.60
2023-08-11T16:21:48.634Z,0.90
2023-08-11T16:24:15.192Z,0.70
2023-08-11T16:26:41.758Z,0.65
2023-08-11T16:29:08.277Z,0.60
2023-08-11T16:31:34.879Z,0.55
2023-08-11T16:34:01.394Z,0.70
2023-08-11T16:36:28.656Z,0.63
2023-08-11T16:38:55.180Z,0.60
2023-08-11T16:41:22.030Z,0.60
2023-08-11T16:43:50.890Z,0.50
2023-08-11T16:46:17.741Z,0.60
2023-08-11T16:48:44.478Z,0.77
2023-08-11T16:51:11.210Z,0.80
2023-08-11T16:53:37.751Z,0.80
2023-08-11T16:56:04.274Z,0.60
2023-08-11T16:58:30.792Z,0.75
2023-08-11T17:00:57.959Z,0.45
2023-08-11T17:03:25.321Z,0.47
2023-08-11T17:05:52.383Z,0.80
2023-08-11T17:08:18.937Z,1.00
2023-08-11T17:10:45.526Z,1.10
2023-08-11T17:13:12.020Z,1.15
2023-08-11T17:15:38.835Z,1.02
2023-08-11T17:18:05.462Z,0.90
2023-08-11T17:20:32.077Z,0.90
2023-08-11T17:22:58.561Z,0.80
2023-08-11T17:25:25.088Z,0.93
2023-08-11T17:27:51.595Z,1.02
2023-08-11T17:30:18.157Z,0.90
2023-08-11T17:32:44.886Z,0.88
2023-08-11T17:35:11.443Z,1.00
2023-08-11T17:37:38.752Z,0.80
2023-08-11T17:40:05.962Z,1.00
2023-08-11T17:42:32.552Z,1.17
2023-08-11T17:44:59.066Z,0.98
2023-08-11T17:47:25.620Z,0.80
2023-08-11T17:49:52.753Z,1.20
2023-08-11T17:52:19.340Z,1.25
2023-08-11T17:54:45.837Z,0.90
2023-08-11T17:57:12.624Z,0.90
2023-08-11T17:59:39.130Z,0.80
2023-08-11T18:02:06.240Z,0.85
2023-08-11T18:04:32.779Z,1.00
2023-08-11T18:06:59.275Z,1.05
2023-08-11T18:09:25.789Z,1.00
2023-08-11T18:11:52.983Z,1.20
2023-08-11T18:14:19.505Z,1.42
2023-08-11T18:16:46.053Z,1.23
2023-08-11T18:19:12.608Z,1.25
2023-08-11T18:21:39.134Z,1.10
2023-08-11T18:24:06.274Z,1.48
2023-08-11T18:26:35.749Z,1.73
2023-08-11T18:29:02.436Z,2.05
2023-08-11T18:31:29.029Z,2.30
2023-08-11T18:33:55.622Z,2.47
2023-08-11T18:36:22.383Z,2.03
2023-08-11T18:38:48.983Z,2.60
2023-08-11T18:41:15.563Z,2.20
2023-08-11T18:43:42.404Z,2.00
2023-08-11T18:46:09.040Z,2.65
2023-08-11T18:48:35.704Z,1.65
2023-08-11T18:51:02.470Z,1.73
2023-08-11T18:53:29.021Z,1.90
2023-08-11T18:55:55.586Z,1.33
2023-08-11T18:58:22.410Z,1.27
2023-08-11T19:00:48.905Z,1.00
2023-08-11T19:03:15.550Z,1.00
2023-08-11T19:05:42.196Z,1.00
2023-08-11T19:08:09.492Z,0.95
2023-08-11T19:10:36.090Z,1.13
2023-08-11T19:13:02.738Z,1.00
2023-08-11T19:15:29.334Z,1.10
2023-08-11T19:17:55.955Z,1.23
2023-08-11T19:20:22.502Z,1.10
2023-08-11T19:22:48.999Z,1.00
2023-08-11T19:25:15.660Z,1.52
2023-08-11T19:27:42.219Z,1.20
2023-08-11T19:30:10.124Z,1.15
2023-08-11T19:32:36.771Z,1.25
2023-08-11T19:35:03.820Z,1.40
2023-08-11T19:37:30.553Z,2.08
2023-08-11T19:39:57.105Z,2.50
2023-08-11T19:42:23.594Z,2.72
2023-08-11T19:44:50.102Z,3.15
2023-08-11T19:47:16.647Z,3.13
2023-08-11T19:49:43.224Z,3.25
2023-08-11T19:52:09.999Z,2.85
2023-08-11T19:54:36.748Z,2.78
2023-08-11T19:57:03.296Z,3.15
2023-08-11T19:59:29.860Z,3.10
2023-08-11T20:01:56.423Z,4.40
2023-08-11T20:04:24.291Z,4.22
2023-08-11T20:06:50.903Z,4.18
2023-08-11T20:09:17.994Z,3.33
2023-08-11T20:11:44.541Z,3.00
2023-08-11T20:14:11.048Z,2.92
2023-08-11T20:16:37.553Z,3.30
2023-08-11T20:19:04.179Z,3.22
2023-08-11T20:21:30.672Z,2.63
2023-08-11T20:23:57.197Z,3.10
2023-08-11T20:26:23.720Z,2.22
2023-08-11T20:28:51.176Z,1.92
2023-08-11T20:31:17.750Z,1.75
2023-08-11T20:33:44.277Z,2.00
2023-08-11T20:36:10.782Z,1.80
2023-08-11T20:38:39.170Z,1.73
2023-08-11T20:41:05.870Z,1.80
2023-08-11T20:43:32.364Z,1.40
2023-08-11T20:45:58.875Z,1.45
2023-08-11T20:48:25.460Z,1.73
2023-08-11T20:50:52.352Z,1.73
2023-08-11T20:53:22.571Z,2.03
2023-08-11T20:55:49.318Z,2.10
2023-08-11T20:58:15.822Z,2.28
2023-08-11T21:00:42.705Z,2.38
2023-08-11T21:03:09.364Z,2.75
2023-08-11T21:05:35.989Z,2.80
2023-08-11T21:08:02.459Z,2.78
2023-08-11T21:10:29.042Z,2.95
2023-08-11T21:12:56.001Z,2.63
2023-08-11T21:15:22.814Z,3.08
2023-08-11T21:17:49.402Z,2.90
2023-08-11T21:20:16.053Z,4.10
2023-08-11T21:22:42.592Z,5.25
2023-08-11T21:25:09.162Z,4.93
2023-08-11T21:27:35.687Z,5.70
2023-08-11T21:30:02.405Z,5.15
2023-08-11T21:32:29.034Z,3.53
2023-08-11T21:34:57.115Z,3.40
2023-08-11T21:37:23.908Z,3.03
2023-08-11T21:39:50.441Z,2.60
2023-08-11T21:42:16.949Z,2.83
2023-08-11T21:44:43.480Z,3.00
2023-08-11T21:47:10.234Z,3.20
2023-08-11T21:49:37.167Z,3.10
2023-08-11T21:52:03.764Z,2.88
2023-08-11T21:54:30.310Z,2.10
2023-08-11T21:56:56.784Z,2.50
2023-08-11T21:59:23.276Z,2.30
2023-08-11T22:01:50.952Z,2.20
2023-08-11T22:04:17.486Z,1.98
2023-08-11T22:06:43.975Z,2.47
2023-08-11T22:09:10.503Z,2.60
2023-08-11T22:11:37.562Z,2.30
2023-08-11T22:14:05.674Z,2.50
2023-08-11T22:16:33.324Z,2.30
2023-08-11T22:19:00.055Z,1.70
2023-08-11T22:21:26.639Z,2.10
2023-08-11T22:23:53.148Z,1.60
2023-08-11T22:26:22.560Z,1.63
2023-08-11T22:28:49.059Z,1.45
2023-08-11T22:31:15.668Z,2.00
2023-08-11T22:33:42.249Z,2.40
2023-08-11T22:36:08.723Z,2.13
2023-08-11T22:38:35.382Z,2.08
2023-08-11T22:41:01.861Z,2.10
2023-08-11T22:43:28.359Z,1.60
2023-08-11T22:45:54.967Z,2.17
2023-08-11T22:48:21.699Z,1.80
2023-08-11T22:50:48.294Z,1.80
2023-08-11T22:53:14.798Z,1.77
2023-08-11T22:55:41.422Z,2.03
2023-08-11T22:58:07.962Z,1.63
2023-08-11T23:00:34.559Z,1.90
2023-08-11T23:03:01.239Z,1.80
2023-08-11T23:05:27.852Z,2.08
2023-08-11T23:07:56.535Z,1.65
2023-08-11T23:10:23.194Z,2.15
2023-08-11T23:12:49.758Z,1.60
2023-08-11T23:15:16.319Z,2.05
2023-08-11T23:17:42.989Z,2.75
2023-08-11T23:20:10.203Z,2.08
2023-08-11T23:22:36.720Z,1.80
2023-08-11T23:25:03.763Z,1.90
2023-08-11T23:27:33.231Z,1.33
2023-08-11T23:30:00.806Z,1.85
2023-08-11T23:32:30.430Z,1.50
2023-08-11T23:34:57.771Z,1.50
2023-08-11T23:37:24.717Z,1.83
2023-08-11T23:39:51.628Z,1.77
2023-08-11T23:42:18.126Z,1.38
2023-08-11T23:44:44.635Z,1.80
2023-08-11T23:47:11.752Z,1.55
2023-08-11T23:49:38.687Z,2.00
2023-08-11T23:52:05.823Z,1.40
2023-08-11T23:54:32.940Z,1.90
2023-08-11T23:56:59.533Z,1.80
2023-08-11T23:59:26.054Z,1.90
